sensor_id;sensor_type;location;lat;lon;timestamp;P1;durP1;ratioP1;P2;durP2;ratioP2
31298;SDS011;17927;52.350;13.402;2022-12-18T00:01:19;54.72;;;20.60;;
31298;SDS011;17927;52.350;13.402;2022-12-18T00:03:46;50.97;;;21.10;;
31298;SDS011;17927;52.350;13.402;2022-12-18T00:06:12;50.08;;;18.77;;
31298;SDS011;17927;52.350;13.402;2022-12-18T00:08:38;53.65;;;20.88;;
31298;SDS011;17927;52.350;13.402;2022-12-18T00:11:04;50.88;;;20.40;;
31298;SDS011;17927;52.350;13.402;2022-12-18T00:13:30;53.47;;;20.52;;
31298;SDS011;17927;52.350;13.402;2022-12-18T00:16:00;51.65;;;19.75;;
31298;SDS011;17927;52.350;13.402;2022-12-18T00:18:33;50.35;;;19.63;;
31298;SDS011;17927;52.350;13.402;2022-12-18T00:20:59;59.53;;;21.08;;
31298;SDS011;17927;52.350;13.402;2022-12-18T00:23:26;54.33;;;20.77;;
31298;SDS011;17927;52.350;13.402;2022-12-18T00:25:52;53.05;;;20.98;;
31298;SDS011;17927;52.350;13.402;2022-12-18T00:28:17;46.83;;;20.30;;
31298;SDS011;17927;52.350;13.402;2022-12-18T00:30:42;48.22;;;19.08;;
31298;SDS011;17927;52.350;13.402;2022-12-18T00:33:07;50.90;;;19.90;;
31298;SDS011;17927;52.350;13.402;2022-12-18T00:35:33;46.42;;;19.55;;
31298;SDS011;17927;52.350;13.402;2022-12-18T00:37:58;48.72;;;19.50;;
31298;SDS011;17927;52.350;13.402;2022-12-18T00:40:23;47.22;;;19.13;;
31298;SDS011;17927;52.350;13.402;2022-12-18T00:42:48;55.35;;;19.73;;
31298;SDS011;17927;52.350;13.402;2022-12-18T00:45:23;46.83;;;18.58;;
31298;SDS011;17927;52.350;13.402;2022-12-18T00:47:58;46.03;;;19.45;;
31298;SDS011;17927;52.350;13.402;2022-12-18T00:50:24;49.95;;;18.65;;
31298;SDS011;17927;52.350;13.402;2022-12-18T00:52:49;42.40;;;17.02;;
31298;SDS011;17927;52.350;13.402;2022-12-18T00:55:15;41.13;;;17.40;;
31298;SDS011;17927;52.350;13.402;2022-12-18T00:57:41;46.60;;;18.08;;
31298;SDS011;17927;52.350;13.402;2022-12-18T01:00:09;47.75;;;18.38;;
31298;SDS011;17927;52.350;13.402;2022-12-18T01:02:36;49.83;;;19.15;;
31298;SDS011;17927;52.350;13.402;2022-12-18T01:05:02;50.13;;;19.02;;
31298;SDS011;17927;52.350;13.402;2022-12-18T01:07:27;48.33;;;19.25;;
31298;SDS011;17927;52.350;13.402;2022-12-18T01:09:52;54.65;;;19.20;;
31298;SDS011;17927;52.350;13.402;2022-12-18T01:12:17;50.95;;;19.10;;
31298;SDS011;17927;52.350;13.402;2022-12-18T01:14:43;48.25;;;19.58;;
31298;SDS011;17927;52.350;13.402;2022-12-18T01:17:08;50.17;;;18.80;;
31298;SDS011;17927;52.350;13.402;2022-12-18T01:19:33;52.20;;;20.92;;
31298;SDS011;17927;52.350;13.402;2022-12-18T01:21:59;54.65;;;21.45;;
31298;SDS011;17927;52.350;13.402;2022-12-18T01:24:24;49.88;;;20.67;;
31298;SDS011;17927;52.350;13.402;2022-12-18T01:26:50;53.30;;;20.23;;
31298;SDS011;17927;52.350;13.402;2022-12-18T01:29:15;52.53;;;19.63;;
31298;SDS011;17927;52.350;13.402;2022-12-18T01:31:40;44.03;;;18.08;;
31298;SDS011;17927;52.350;13.402;2022-12-18T01:34:06;49.97;;;19.50;;
31298;SDS011;17927;52.350;13.402;2022-12-18T01:36:32;47.33;;;19.05;;
31298;SDS011;17927;52.350;13.402;2022-12-18T01:38:59;58.15;;;21.23;;
31298;SDS011;17927;52.350;13.402;2022-12-18T01:41:27;57.15;;;20.63;;
31298;SDS011;17927;52.350;13.402;2022-12-18T01:47:18;54.75;;;20.80;;
31298;SDS011;17927;52.350;13.402;2022-12-18T01:49:47;60.25;;;21.15;;
31298;SDS011;17927;52.350;13.402;2022-12-18T01:52:14;55.78;;;22.50;;
31298;SDS011;17927;52.350;13.402;2022-12-18T01:54:40;51.33;;;20.70;;
31298;SDS011;17927;52.350;13.402;2022-12-18T01:57:06;60.75;;;23.23;;
31298;SDS011;17927;52.350;13.402;2022-12-18T01:59:32;61.83;;;23.42;;
31298;SDS011;17927;52.350;13.402;2022-12-18T02:02:00;55.85;;;21.52;;
31298;SDS011;17927;52.350;13.402;2022-12-18T02:04:27;53.40;;;21.80;;
31298;SDS011;17927;52.350;13.402;2022-12-18T02:10:10;59.42;;;22.02;;
31298;SDS011;17927;52.350;13.402;2022-12-18T02:12:56;64.25;;;23.83;;
31298;SDS011;17927;52.350;13.402;2022-12-18T02:18:38;59.15;;;21.85;;
31298;SDS011;17927;52.350;13.402;2022-12-18T02:21:09;54.35;;;20.58;;
31298;SDS011;17927;52.350;13.402;2022-12-18T02:23:42;61.53;;;22.20;;
31298;SDS011;17927;52.350;13.402;2022-12-18T02:26:46;66.32;;;23.15;;
31298;SDS011;17927;52.350;13.402;2022-12-18T02:29:16;69.65;;;23.05;;
31298;SDS011;17927;52.350;13.402;2022-12-18T02:34:15;66.53;;;22.30;;
31298;SDS011;17927;52.350;13.402;2022-12-18T02:36:42;68.53;;;23.83;;
31298;SDS011;17927;52.350;13.402;2022-12-18T02:39:11;72.40;;;23.30;;
31298;SDS011;17927;52.350;13.402;2022-12-18T02:41:38;66.72;;;23.35;;
31298;SDS011;17927;52.350;13.402;2022-12-18T02:44:08;72.32;;;24.80;;
31298;SDS011;17927;52.350;13.402;2022-12-18T02:49:22;68.95;;;23.02;;
31298;SDS011;17927;52.350;13.402;2022-12-18T02:52:01;72.20;;;24.00;;
31298;SDS011;17927;52.350;13.402;2022-12-18T02:54:52;70.53;;;25.55;;
31298;SDS011;17927;52.350;13.402;2022-12-18T02:57:34;72.40;;;25.13;;
31298;SDS011;17927;52.350;13.402;2022-12-18T03:02:41;75.25;;;24.52;;
31298;SDS011;17927;52.350;13.402;2022-12-18T03:05:15;80.65;;;26.00;;
31298;SDS011;17927;52.350;13.402;2022-12-18T03:07:47;79.07;;;26.52;;
31298;SDS011;17927;52.350;13.402;2022-12-18T03:10:19;85.25;;;28.48;;
31298;SDS011;17927;52.350;13.402;2022-12-18T03:17:48;89.18;;;28.13;;
31298;SDS011;17927;52.350;13.402;2022-12-18T03:20:18;82.55;;;28.48;;
31298;SDS011;17927;52.350;13.402;2022-12-18T03:22:46;92.65;;;32.10;;
31298;SDS011;17927;52.350;13.402;2022-12-18T03:25:16;95.30;;;29.95;;
31298;SDS011;17927;52.350;13.402;2022-12-18T03:27:45;96.13;;;29.88;;
31298;SDS011;17927;52.350;13.402;2022-12-18T03:30:14;85.53;;;29.58;;
31298;SDS011;17927;52.350;13.402;2022-12-18T03:35:26;100.03;;;31.10;;
31298;SDS011;17927;52.350;13.402;2022-12-18T03:37:55;100.85;;;31.30;;
31298;SDS011;17927;52.350;13.402;2022-12-18T03:40:21;102.13;;;32.35;;
31298;SDS011;17927;52.350;13.402;2022-12-18T03:42:52;98.90;;;32.78;;
31298;SDS011;17927;52.350;13.402;2022-12-18T03:45:32;100.57;;;32.47;;
31298;SDS011;17927;52.350;13.402;2022-12-18T03:48:37;103.70;;;32.05;;
31298;SDS011;17927;52.350;13.402;2022-12-18T03:50:57;96.93;;;30.42;;
31298;SDS011;17927;52.350;13.402;2022-12-18T03:56:19;90.72;;;29.92;;
31298;SDS011;17927;52.350;13.402;2022-12-18T03:58:48;88.93;;;28.98;;
31298;SDS011;17927;52.350;13.402;2022-12-18T04:01:15;91.60;;;29.35;;
31298;SDS011;17927;52.350;13.402;2022-12-18T04:03:43;87.15;;;28.80;;
31298;SDS011;17927;52.350;13.402;2022-12-18T04:06:10;82.47;;;26.83;;
31298;SDS011;17927;52.350;13.402;2022-12-18T04:08:37;82.20;;;28.55;;
31298;SDS011;17927;52.350;13.402;2022-12-18T04:11:04;73.65;;;26.75;;
31298;SDS011;17927;52.350;13.402;2022-12-18T04:13:34;82.82;;;28.23;;
31298;SDS011;17927;52.350;13.402;2022-12-18T04:16:01;79.15;;;26.55;;
31298;SDS011;17927;52.350;13.402;2022-12-18T04:18:26;75.47;;;26.95;;
31298;SDS011;17927;52.350;13.402;2022-12-18T04:20:52;72.97;;;25.98;;
31298;SDS011;17927;52.350;13.402;2022-12-18T04:23:17;87.38;;;26.95;;
31298;SDS011;17927;52.350;13.402;2022-12-18T04:25:42;92.22;;;29.45;;
31298;SDS011;17927;52.350;13.402;2022-12-18T04:28:07;87.07;;;29.50;;
31298;SDS011;17927;52.350;13.402;2022-12-18T04:30:33;81.97;;;25.88;;
31298;SDS011;17927;52.350;13.402;2022-12-18T04:32:58;83.57;;;28.38;;
31298;SDS011;17927;52.350;13.402;2022-12-18T04:35:23;91.18;;;28.95;;
31298;SDS011;17927;52.350;13.402;2022-12-18T04:37:49;94.05;;;29.38;;
31298;SDS011;17927;52.350;13.402;2022-12-18T04:40:14;97.80;;;30.92;;
31298;SDS011;17927;52.350;13.402;2022-12-18T04:42:39;88.10;;;29.65;;
31298;SDS011;17927;52.350;13.402;2022-12-18T04:45:05;87.90;;;29.20;;
31298;SDS011;17927;52.350;13.402;2022-12-18T04:47:31;87.07;;;28.80;;
31298;SDS011;17927;52.350;13.402;2022-12-18T04:49:56;112.38;;;33.50;;
31298;SDS011;17927;52.350;13.402;2022-12-18T04:52:22;110.80;;;34.40;;
31298;SDS011;17927;52.350;13.402;2022-12-18T04:54:47;96.78;;;31.48;;
31298;SDS011;17927;52.350;13.402;2022-12-18T04:57:12;94.43;;;31.48;;
31298;SDS011;17927;52.350;13.402;2022-12-18T04:59:37;97.80;;;30.90;;
31298;SDS011;17927;52.350;13.402;2022-12-18T05:02:03;104.93;;;33.47;;
31298;SDS011;17927;52.350;13.402;2022-12-18T05:04:28;98.03;;;31.15;;
31298;SDS011;17927;52.350;13.402;2022-12-18T05:06:56;101.88;;;34.05;;
31298;SDS011;17927;52.350;13.402;2022-12-18T05:09:21;95.43;;;31.52;;
31298;SDS011;17927;52.350;13.402;2022-12-18T05:11:46;86.15;;;30.95;;
31298;SDS011;17927;52.350;13.402;2022-12-18T05:14:12;93.70;;;30.83;;
31298;SDS011;17927;52.350;13.402;2022-12-18T05:16:37;98.93;;;32.30;;
31298;SDS011;17927;52.350;13.402;2022-12-18T05:19:02;94.45;;;31.88;;
31298;SDS011;17927;52.350;13.402;2022-12-18T05:21:27;99.50;;;32.67;;
31298;SDS011;17927;52.350;13.402;2022-12-18T05:23:53;93.43;;;31.65;;
31298;SDS011;17927;52.350;13.402;2022-12-18T05:26:18;98.55;;;33.65;;
31298;SDS011;17927;52.350;13.402;2022-12-18T05:28:43;97.65;;;32.47;;
31298;SDS011;17927;52.350;13.402;2022-12-18T05:31:09;95.55;;;31.98;;
31298;SDS011;17927;52.350;13.402;2022-12-18T05:33:34;93.80;;;32.65;;
31298;SDS011;17927;52.350;13.402;2022-12-18T05:36:01;94.93;;;31.70;;
31298;SDS011;17927;52.350;13.402;2022-12-18T05:38:28;96.93;;;33.42;;
31298;SDS011;17927;52.350;13.402;2022-12-18T05:40:54;97.82;;;32.40;;
31298;SDS011;17927;52.350;13.402;2022-12-18T05:43:20;93.68;;;31.45;;
31298;SDS011;17927;52.350;13.402;2022-12-18T05:45:49;95.85;;;31.92;;
31298;SDS011;17927;52.350;13.402;2022-12-18T05:48:15;85.88;;;29.08;;
31298;SDS011;17927;52.350;13.402;2022-12-18T05:50:42;94.80;;;32.65;;
31298;SDS011;17927;52.350;13.402;2022-12-18T05:53:10;89.65;;;30.58;;
31298;SDS011;17927;52.350;13.402;2022-12-18T05:55:36;89.32;;;30.00;;
31298;SDS011;17927;52.350;13.402;2022-12-18T05:58:03;90.95;;;30.38;;
31298;SDS011;17927;52.350;13.402;2022-12-18T06:00:29;94.82;;;31.33;;
31298;SDS011;17927;52.350;13.402;2022-12-18T06:02:56;107.78;;;36.10;;
31298;SDS011;17927;52.350;13.402;2022-12-18T06:05:22;96.80;;;33.38;;
31298;SDS011;17927;52.350;13.402;2022-12-18T06:07:47;97.90;;;33.20;;
31298;SDS011;17927;52.350;13.402;2022-12-18T06:10:12;99.53;;;33.80;;
31298;SDS011;17927;52.350;13.402;2022-12-18T06:12:37;94.55;;;30.80;;
31298;SDS011;17927;52.350;13.402;2022-12-18T06:15:03;94.85;;;32.00;;
31298;SDS011;17927;52.350;13.402;2022-12-18T06:17:29;91.72;;;30.48;;
31298;SDS011;17927;52.350;13.402;2022-12-18T06:19:55;96.95;;;30.98;;
31298;SDS011;17927;52.350;13.402;2022-12-18T06:22:21;95.80;;;30.27;;
31298;SDS011;17927;52.350;13.402;2022-12-18T06:24:46;91.78;;;31.25;;
31298;SDS011;17927;52.350;13.402;2022-12-18T06:27:14;89.03;;;30.13;;
31298;SDS011;17927;52.350;13.402;2022-12-18T06:29:40;89.55;;;28.52;;
31298;SDS011;17927;52.350;13.402;2022-12-18T06:32:05;88.45;;;29.73;;
31298;SDS011;17927;52.350;13.402;2022-12-18T06:34:30;96.03;;;31.65;;
31298;SDS011;17927;52.350;13.402;2022-12-18T06:36:56;85.07;;;30.30;;
31298;SDS011;17927;52.350;13.402;2022-12-18T06:39:21;82.50;;;29.42;;
31298;SDS011;17927;52.350;13.402;2022-12-18T06:41:46;83.55;;;28.48;;
31298;SDS011;17927;52.350;13.402;2022-12-18T06:44:11;87.38;;;29.52;;
31298;SDS011;17927;52.350;13.402;2022-12-18T06:46:37;72.30;;;25.98;;
31298;SDS011;17927;52.350;13.402;2022-12-18T06:49:02;64.03;;;24.30;;
31298;SDS011;17927;52.350;13.402;2022-12-18T06:51:28;78.00;;;26.25;;
31298;SDS011;17927;52.350;13.402;2022-12-18T06:53:53;72.88;;;27.48;;
31298;SDS011;17927;52.350;13.402;2022-12-18T06:56:18;68.22;;;25.60;;
31298;SDS011;17927;52.350;13.402;2022-12-18T06:58:44;73.13;;;26.50;;
31298;SDS011;17927;52.350;13.402;2022-12-18T07:01:09;56.20;;;21.83;;
31298;SDS011;17927;52.350;13.402;2022-12-18T07:03:36;60.15;;;21.85;;
31298;SDS011;17927;52.350;13.402;2022-12-18T07:06:03;57.38;;;22.02;;
31298;SDS011;17927;52.350;13.402;2022-12-18T07:08:29;62.65;;;22.27;;
31298;SDS011;17927;52.350;13.402;2022-12-18T07:10:55;55.90;;;22.48;;
31298;SDS011;17927;52.350;13.402;2022-12-18T07:13:20;58.53;;;21.60;;
31298;SDS011;17927;52.350;13.402;2022-12-18T07:15:46;62.70;;;21.75;;
31298;SDS011;17927;52.350;13.402;2022-12-18T07:18:11;55.00;;;20.60;;
31298;SDS011;17927;52.350;13.402;2022-12-18T07:20:36;57.13;;;21.35;;
31298;SDS011;17927;52.350;13.402;2022-12-18T07:23:02;49.55;;;20.13;;
31298;SDS011;17927;52.350;13.402;2022-12-18T07:25:28;49.60;;;20.55;;
31298;SDS011;17927;52.350;13.402;2022-12-18T07:27:54;54.88;;;19.90;;
31298;SDS011;17927;52.350;13.402;2022-12-18T07:30:19;54.95;;;21.75;;
31298;SDS011;17927;52.350;13.402;2022-12-18T07:32:44;53.83;;;21.38;;
31298;SDS011;17927;52.350;13.402;2022-12-18T07:35:10;57.85;;;22.50;;
31298;SDS011;17927;52.350;13.402;2022-12-18T07:37:35;58.55;;;22.13;;
31298;SDS011;17927;52.350;13.402;2022-12-18T07:40:00;54.42;;;21.38;;
31298;SDS011;17927;52.350;13.402;2022-12-18T07:42:25;59.35;;;21.27;;
31298;SDS011;17927;52.350;13.402;2022-12-18T07:47:22;56.53;;;21.80;;
31298;SDS011;17927;52.350;13.402;2022-12-18T07:49:47;60.35;;;21.48;;
31298;SDS011;17927;52.350;13.402;2022-12-18T07:52:13;53.22;;;20.23;;
31298;SDS011;17927;52.350;13.402;2022-12-18T07:54:38;58.92;;;22.65;;
31298;SDS011;17927;52.350;13.402;2022-12-18T07:57:05;61.35;;;23.20;;
31298;SDS011;17927;52.350;13.402;2022-12-18T07:59:30;63.40;;;22.38;;
31298;SDS011;17927;52.350;13.402;2022-12-18T08:01:55;62.47;;;22.95;;
31298;SDS011;17927;52.350;13.402;2022-12-18T08:04:20;62.45;;;23.58;;
31298;SDS011;17927;52.350;13.402;2022-12-18T08:06:46;58.85;;;22.92;;
31298;SDS011;17927;52.350;13.402;2022-12-18T08:09:11;57.25;;;22.45;;
31298;SDS011;17927;52.350;13.402;2022-12-18T08:11:36;55.03;;;22.25;;
31298;SDS011;17927;52.350;13.402;2022-12-18T08:14:02;57.30;;;21.90;;
31298;SDS011;17927;52.350;13.402;2022-12-18T08:16:27;60.53;;;23.38;;
31298;SDS011;17927;52.350;13.402;2022-12-18T08:18:52;57.45;;;21.27;;
31298;SDS011;17927;52.350;13.402;2022-12-18T08:21:22;59.58;;;25.15;;
31298;SDS011;17927;52.350;13.402;2022-12-18T08:23:51;58.08;;;22.27;;
31298;SDS011;17927;52.350;13.402;2022-12-18T08:26:18;68.50;;;23.40;;
31298;SDS011;17927;52.350;13.402;2022-12-18T08:28:43;60.35;;;23.25;;
31298;SDS011;17927;52.350;13.402;2022-12-18T08:31:09;67.35;;;24.20;;
31298;SDS011;17927;52.350;13.402;2022-12-18T08:33:35;64.35;;;24.17;;
31298;SDS011;17927;52.350;13.402;2022-12-18T08:36:02;65.15;;;23.85;;
31298;SDS011;17927;52.350;13.402;2022-12-18T08:38:28;62.88;;;23.77;;
31298;SDS011;17927;52.350;13.402;2022-12-18T08:41:00;63.58;;;24.35;;
31298;SDS011;17927;52.350;13.402;2022-12-18T08:43:26;58.08;;;22.00;;
31298;SDS011;17927;52.350;13.402;2022-12-18T08:46:10;59.40;;;22.70;;
31298;SDS011;17927;52.350;13.402;2022-12-18T08:48:35;54.95;;;21.23;;
31298;SDS011;17927;52.350;13.402;2022-12-18T08:51:01;57.53;;;22.15;;
31298;SDS011;17927;52.350;13.402;2022-12-18T08:53:26;61.80;;;22.58;;
31298;SDS011;17927;52.350;13.402;2022-12-18T08:55:52;53.30;;;20.20;;
31298;SDS011;17927;52.350;13.402;2022-12-18T08:58:18;51.28;;;20.05;;
31298;SDS011;17927;52.350;13.402;2022-12-18T09:00:44;52.53;;;21.02;;
31298;SDS011;17927;52.350;13.402;2022-12-18T09:03:11;52.47;;;20.55;;
31298;SDS011;17927;52.350;13.402;2022-12-18T09:05:37;49.78;;;20.80;;
31298;SDS011;17927;52.350;13.402;2022-12-18T09:08:02;57.15;;;21.88;;
31298;SDS011;17927;52.350;13.402;2022-12-18T09:10:27;53.55;;;20.88;;
31298;SDS011;17927;52.350;13.402;2022-12-18T09:12:52;51.13;;;20.92;;
31298;SDS011;17927;52.350;13.402;2022-12-18T09:15:18;57.35;;;21.30;;
31298;SDS011;17927;52.350;13.402;2022-12-18T09:17:43;48.60;;;19.50;;
31298;SDS011;17927;52.350;13.402;2022-12-18T09:20:08;48.53;;;19.77;;
31298;SDS011;17927;52.350;13.402;2022-12-18T09:22:34;48.42;;;20.30;;
31298;SDS011;17927;52.350;13.402;2022-12-18T09:24:59;40.17;;;19.00;;
31298;SDS011;17927;52.350;13.402;2022-12-18T09:27:24;40.05;;;17.42;;
31298;SDS011;17927;52.350;13.402;2022-12-18T09:29:50;49.22;;;19.88;;
31298;SDS011;17927;52.350;13.402;2022-12-18T09:32:15;47.45;;;19.42;;
31298;SDS011;17927;52.350;13.402;2022-12-18T09:34:40;45.38;;;19.40;;
31298;SDS011;17927;52.350;13.402;2022-12-18T09:37:05;46.60;;;19.33;;
31298;SDS011;17927;52.350;13.402;2022-12-18T09:39:31;46.85;;;19.10;;
31298;SDS011;17927;52.350;13.402;2022-12-18T09:41:57;47.90;;;18.88;;
31298;SDS011;17927;52.350;13.402;2022-12-18T09:47:42;51.72;;;21.65;;
31298;SDS011;17927;52.350;13.402;2022-12-18T09:52:49;44.33;;;17.60;;
31298;SDS011;17927;52.350;13.402;2022-12-18T09:55:25;42.38;;;18.50;;
31298;SDS011;17927;52.350;13.402;2022-12-18T09:57:59;48.78;;;18.45;;
31298;SDS011;17927;52.350;13.402;2022-12-18T10:00:30;47.95;;;19.60;;
31298;SDS011;17927;52.350;13.402;2022-12-18T10:03:01;45.55;;;18.85;;
31298;SDS011;17927;52.350;13.402;2022-12-18T10:05:56;43.05;;;18.00;;
31298;SDS011;17927;52.350;13.402;2022-12-18T10:11:29;43.28;;;19.30;;
31298;SDS011;17927;52.350;13.402;2022-12-18T10:14:32;38.42;;;17.58;;
31298;SDS011;17927;52.350;13.402;2022-12-18T10:19:48;40.65;;;18.65;;
31298;SDS011;17927;52.350;13.402;2022-12-18T10:22:21;46.28;;;20.13;;
31298;SDS011;17927;52.350;13.402;2022-12-18T10:24:50;48.22;;;19.45;;
31298;SDS011;17927;52.350;13.402;2022-12-18T10:27:22;43.25;;;19.20;;
31298;SDS011;17927;52.350;13.402;2022-12-18T10:29:49;49.92;;;18.98;;
31298;SDS011;17927;52.350;13.402;2022-12-18T10:32:15;54.80;;;20.52;;
31298;SDS011;17927;52.350;13.402;2022-12-18T10:34:47;57.25;;;22.25;;
31298;SDS011;17927;52.350;13.402;2022-12-18T10:37:15;49.97;;;21.13;;
31298;SDS011;17927;52.350;13.402;2022-12-18T10:39:42;53.45;;;21.95;;
31298;SDS011;17927;52.350;13.402;2022-12-18T10:42:18;52.45;;;20.92;;
31298;SDS011;17927;52.350;13.402;2022-12-18T10:44:44;52.08;;;22.35;;
31298;SDS011;17927;52.350;13.402;2022-12-18T10:47:17;54.42;;;21.83;;
31298;SDS011;17927;52.350;13.402;2022-12-18T10:49:47;52.83;;;21.20;;
31298;SDS011;17927;52.350;13.402;2022-12-18T10:52:17;52.42;;;21.55;;
31298;SDS011;17927;52.350;13.402;2022-12-18T10:54:46;53.22;;;21.85;;
31298;SDS011;17927;52.350;13.402;2022-12-18T10:59:55;50.35;;;20.58;;
31298;SDS011;17927;52.350;13.402;2022-12-18T11:02:33;50.00;;;21.02;;
31298;SDS011;17927;52.350;13.402;2022-12-18T11:05:00;51.22;;;20.77;;
31298;SDS011;17927;52.350;13.402;2022-12-18T11:07:25;46.88;;;20.55;;
31298;SDS011;17927;52.350;13.402;2022-12-18T11:10:15;48.75;;;19.75;;
31298;SDS011;17927;52.350;13.402;2022-12-18T11:12:43;48.25;;;19.58;;
31298;SDS011;17927;52.350;13.402;2022-12-18T11:15:19;43.55;;;18.48;;
31298;SDS011;17927;52.350;13.402;2022-12-18T11:17:55;50.90;;;19.48;;
31298;SDS011;17927;52.350;13.402;2022-12-18T11:20:26;39.97;;;18.08;;
31298;SDS011;17927;52.350;13.402;2022-12-18T11:22:56;48.00;;;20.58;;
31298;SDS011;17927;52.350;13.402;2022-12-18T11:25:24;46.58;;;19.80;;
31298;SDS011;17927;52.350;13.402;2022-12-18T11:27:53;47.75;;;19.70;;
31298;SDS011;17927;52.350;13.402;2022-12-18T11:30:25;44.47;;;18.55;;
31298;SDS011;17927;52.350;13.402;2022-12-18T11:33:01;44.00;;;19.98;;
31298;SDS011;17927;52.350;13.402;2022-12-18T11:35:44;51.17;;;21.73;;
31298;SDS011;17927;52.350;13.402;2022-12-18T11:40:56;45.67;;;19.83;;
31298;SDS011;17927;52.350;13.402;2022-12-18T11:43:26;41.88;;;18.45;;
31298;SDS011;17927;52.350;13.402;2022-12-18T11:46:01;41.78;;;17.58;;
31298;SDS011;17927;52.350;13.402;2022-12-18T11:48:32;43.88;;;18.48;;
31298;SDS011;17927;52.350;13.402;2022-12-18T11:51:03;43.60;;;18.40;;
31298;SDS011;17927;52.350;13.402;2022-12-18T11:53:35;45.55;;;20.48;;
31298;SDS011;17927;52.350;13.402;2022-12-18T11:56:05;45.25;;;19.27;;
31298;SDS011;17927;52.350;13.402;2022-12-18T11:58:48;45.28;;;19.33;;
31298;SDS011;17927;52.350;13.402;2022-12-18T12:01:44;40.42;;;17.75;;
31298;SDS011;17927;52.350;13.402;2022-12-18T12:06:50;30.90;;;16.88;;
31298;SDS011;17927;52.350;13.402;2022-12-18T12:09:31;37.90;;;17.55;;
31298;SDS011;17927;52.350;13.402;2022-12-18T12:14:45;30.45;;;16.15;;
31298;SDS011;17927;52.350;13.402;2022-12-18T12:22:55;33.38;;;15.95;;
31298;SDS011;17927;52.350;13.402;2022-12-18T12:25:39;34.72;;;16.80;;
31298;SDS011;17927;52.350;13.402;2022-12-18T12:29:13;35.55;;;17.73;;
31298;SDS011;17927;52.350;13.402;2022-12-18T12:39:39;36.50;;;17.30;;
31298;SDS011;17927;52.350;13.402;2022-12-18T12:42:18;33.90;;;17.60;;
31298;SDS011;17927;52.350;13.402;2022-12-18T12:45:09;31.88;;;16.42;;
31298;SDS011;17927;52.350;13.402;2022-12-18T12:47:43;33.95;;;16.20;;
31298;SDS011;17927;52.350;13.402;2022-12-18T12:50:14;32.72;;;16.20;;
31298;SDS011;17927;52.350;13.402;2022-12-18T12:52:43;32.63;;;16.42;;
31298;SDS011;17927;52.350;13.402;2022-12-18T12:55:16;30.73;;;17.30;;
31298;SDS011;17927;52.350;13.402;2022-12-18T12:57:46;26.63;;;14.75;;
31298;SDS011;17927;52.350;13.402;2022-12-18T13:00:16;26.23;;;15.27;;
31298;SDS011;17927;52.350;13.402;2022-12-18T13:08:04;33.33;;;17.92;;
31298;SDS011;17927;52.350;13.402;2022-12-18T13:10:33;41.78;;;21.52;;
31298;SDS011;17927;52.350;13.402;2022-12-18T13:18:14;34.20;;;17.60;;
31298;SDS011;17927;52.350;13.402;2022-12-18T13:21:02;39.60;;;20.15;;
31298;SDS011;17927;52.350;13.402;2022-12-18T13:23:38;37.83;;;19.30;;
31298;SDS011;17927;52.350;13.402;2022-12-18T13:30:58;50.05;;;22.70;;
31298;SDS011;17927;52.350;13.402;2022-12-18T13:35:53;38.20;;;20.92;;
31298;SDS011;17927;52.350;13.402;2022-12-18T13:38:36;37.60;;;19.48;;
31298;SDS011;17927;52.350;13.402;2022-12-18T13:43:44;40.70;;;20.63;;
31298;SDS011;17927;52.350;13.402;2022-12-18T13:46:19;44.60;;;21.90;;
31298;SDS011;17927;52.350;13.402;2022-12-18T13:48:56;45.95;;;22.52;;
31298;SDS011;17927;52.350;13.402;2022-12-18T13:51:28;51.25;;;24.45;;
31298;SDS011;17927;52.350;13.402;2022-12-18T13:53:59;48.15;;;24.08;;
31298;SDS011;17927;52.350;13.402;2022-12-18T14:01:41;61.03;;;27.40;;
31298;SDS011;17927;52.350;13.402;2022-12-18T14:04:28;67.80;;;29.63;;
31298;SDS011;17927;52.350;13.402;2022-12-18T14:06:56;64.57;;;30.20;;
31298;SDS011;17927;52.350;13.402;2022-12-18T14:09:27;60.80;;;28.00;;
31298;SDS011;17927;52.350;13.402;2022-12-18T14:12:00;65.55;;;28.35;;
31298;SDS011;17927;52.350;13.402;2022-12-18T14:14:46;64.47;;;28.58;;
31298;SDS011;17927;52.350;13.402;2022-12-18T14:17:14;70.18;;;29.38;;
31298;SDS011;17927;52.350;13.402;2022-12-18T14:19:41;63.13;;;28.83;;
31298;SDS011;17927;52.350;13.402;2022-12-18T14:22:13;68.53;;;28.45;;
31298;SDS011;17927;52.350;13.402;2022-12-18T14:24:41;67.35;;;30.15;;
31298;SDS011;17927;52.350;13.402;2022-12-18T14:27:23;64.93;;;29.23;;
31298;SDS011;17927;52.350;13.402;2022-12-18T14:29:50;57.80;;;28.50;;
31298;SDS011;17927;52.350;13.402;2022-12-18T14:32:16;54.55;;;26.88;;
31298;SDS011;17927;52.350;13.402;2022-12-18T14:34:53;59.50;;;27.50;;
31298;SDS011;17927;52.350;13.402;2022-12-18T14:37:23;60.50;;;28.27;;
31298;SDS011;17927;52.350;13.402;2022-12-18T14:39:54;61.78;;;27.95;;
31298;SDS011;17927;52.350;13.402;2022-12-18T14:42:24;59.53;;;27.88;;
31298;SDS011;17927;52.350;13.402;2022-12-18T14:45:17;53.53;;;25.50;;
31298;SDS011;17927;52.350;13.402;2022-12-18T14:47:56;49.80;;;24.00;;
31298;SDS011;17927;52.350;13.402;2022-12-18T14:50:22;44.08;;;23.08;;
31298;SDS011;17927;52.350;13.402;2022-12-18T14:52:48;50.50;;;23.75;;
31298;SDS011;17927;52.350;13.402;2022-12-18T14:55:14;38.08;;;20.42;;
31298;SDS011;17927;52.350;13.402;2022-12-18T14:57:41;44.00;;;21.48;;
31298;SDS011;17927;52.350;13.402;2022-12-18T15:00:15;37.75;;;20.17;;
31298;SDS011;17927;52.350;13.402;2022-12-18T15:02:56;45.05;;;22.77;;
31298;SDS011;17927;52.350;13.402;2022-12-18T15:05:29;41.38;;;21.42;;
31298;SDS011;17927;52.350;13.402;2022-12-18T15:07:56;40.63;;;20.92;;
31298;SDS011;17927;52.350;13.402;2022-12-18T15:10:27;43.33;;;20.73;;
31298;SDS011;17927;52.350;13.402;2022-12-18T15:17:58;42.65;;;22.67;;
31298;SDS011;17927;52.350;13.402;2022-12-18T15:20:54;43.67;;;22.38;;
31298;SDS011;17927;52.350;13.402;2022-12-18T15:23:32;45.38;;;22.25;;
31298;SDS011;17927;52.350;13.402;2022-12-18T15:26:18;44.50;;;21.70;;
31298;SDS011;17927;52.350;13.402;2022-12-18T15:28:47;44.95;;;23.77;;
31298;SDS011;17927;52.350;13.402;2022-12-18T15:36:17;39.50;;;20.75;;
31298;SDS011;17927;52.350;13.402;2022-12-18T15:38:46;39.53;;;20.50;;
31298;SDS011;17927;52.350;13.402;2022-12-18T15:41:16;45.38;;;21.20;;
31298;SDS011;17927;52.350;13.402;2022-12-18T15:43:43;38.10;;;20.23;;
31298;SDS011;17927;52.350;13.402;2022-12-18T15:46:11;38.22;;;19.80;;
31298;SDS011;17927;52.350;13.402;2022-12-18T15:48:42;34.95;;;19.23;;
31298;SDS011;17927;52.350;13.402;2022-12-18T15:51:11;44.08;;;22.20;;
31298;SDS011;17927;52.350;13.402;2022-12-18T15:53:43;37.65;;;20.15;;
31298;SDS011;17927;52.350;13.402;2022-12-18T15:56:13;42.67;;;20.90;;
31298;SDS011;17927;52.350;13.402;2022-12-18T15:58:58;45.95;;;22.10;;
31298;SDS011;17927;52.350;13.402;2022-12-18T16:01:24;42.33;;;20.80;;
31298;SDS011;17927;52.350;13.402;2022-12-18T16:03:51;39.05;;;18.83;;